sensor_id;sensor_type;location;lat;lon;timestamp;temperature;humidity
4509;DHT22;2267;48.816;9.230;2024-01-06T00:02:12;8.20;99.90
4509;DHT22;2267;48.816;9.230;2024-01-06T00:04:38;8.20;99.90
4509;DHT22;2267;48.816;9.230;2024-01-06T00:07:05;8.20;99.90
4509;DHT22;2267;48.816;9.230;2024-01-06T00:09:32;8.20;99.90
4509;DHT22;2267;48.816;9.230;2024-01-06T00:11:59;8.20;99.90
4509;DHT22;2267;48.816;9.230;2024-01-06T00:14:28;8.20;99.90
4509;DHT22;2267;48.816;9.230;2024-01-06T00:16:55;8.20;99.90
4509;DHT22;2267;48.816;9.230;2024-01-06T00:19:22;8.20;99.90
4509;DHT22;2267;48.816;9.230;2024-01-06T00:21:49;8.10;99.90
4509;DHT22;2267;48.816;9.230;2024-01-06T00:24:16;8.10;99.90
4509;DHT22;2267;48.816;9.230;2024-01-06T00:26:43;8.10;99.90
4509;DHT22;2267;48.816;9.230;2024-01-06T00:29:09;8.10;99.90
4509;DHT22;2267;48.816;9.230;2024-01-06T00:31:36;8.10;99.90
4509;DHT22;2267;48.816;9.230;2024-01-06T00:34:03;8.10;99.90
4509;DHT22;2267;48.816;9.230;2024-01-06T00:36:30;8.10;99.90
4509;DHT22;2267;48.816;9.230;2024-01-06T00:38:57;8.10;99.90
4509;DHT22;2267;48.816;9.230;2024-01-06T00:41:24;8.10;99.90
4509;DHT22;2267;48.816;9.230;2024-01-06T00:43:51;8.20;99.90
4509;DHT22;2267;48.816;9.230;2024-01-06T00:46:17;8.20;99.90
4509;DHT22;2267;48.816;9.230;2024-01-06T00:48:44;8.20;99.90
4509;DHT22;2267;48.816;9.230;2024-01-06T00:51:11;8.20;99.90
4509;DHT22;2267;48.816;9.230;2024-01-06T00:53:38;8.20;99.90
4509;DHT22;2267;48.816;9.230;2024-01-06T00:56:05;8.20;99.90
4509;DHT22;2267;48.816;9.230;2024-01-06T00:58:31;8.20;99.90
4509;DHT22;2267;48.816;9.230;2024-01-06T01:00:58;8.20;99.90
4509;DHT22;2267;48.816;9.230;2024-01-06T01:03:25;8.20;99.90
4509;DHT22;2267;48.816;9.230;2024-01-06T01:05:52;8.10;99.90
4509;DHT22;2267;48.816;9.230;2024-01-06T01:08:19;8.10;99.90
4509;DHT22;2267;48.816;9.230;2024-01-06T01:10:46;8.10;99.90
4509;DHT22;2267;48.816;9.230;2024-01-06T01:13:12;8.10;99.90
4509;DHT22;2267;48.816;9.230;2024-01-06T01:15:39;8.10;99.90
4509;DHT22;2267;48.816;9.230;2024-01-06T01:18:06;8.10;99.90
4509;DHT22;2267;48.816;9.230;2024-01-06T01:20:33;8.10;99.90
4509;DHT22;2267;48.816;9.230;2024-01-06T01:22:59;8.10;99.90
4509;DHT22;2267;48.816;9.230;2024-01-06T01:25:26;8.10;99.90
4509;DHT22;2267;48.816;9.230;2024-01-06T01:27:53;8.10;99.90
4509;DHT22;2267;48.816;9.230;2024-01-06T01:30:20;8.10;99.90
4509;DHT22;2267;48.816;9.230;2024-01-06T01:32:46;8.10;99.90
4509;DHT22;2267;48.816;9.230;2024-01-06T01:35:13;8.10;99.90
4509;DHT22;2267;48.816;9.230;2024-01-06T01:37:40;8.10;99.90
4509;DHT22;2267;48.816;9.230;2024-01-06T01:40:07;8.10;99.90
4509;DHT22;2267;48.816;9.230;2024-01-06T01:42:34;8.10;99.90
4509;DHT22;2267;48.816;9.230;2024-01-06T01:45:01;8.10;99.90
4509;DHT22;2267;48.816;9.230;2024-01-06T01:47:28;8.10;99.90
4509;DHT22;2267;48.816;9.230;2024-01-06T01:49:55;8.10;99.90
4509;DHT22;2267;48.816;9.230;2024-01-06T01:52:23;8.10;99.90
4509;DHT22;2267;48.816;9.230;2024-01-06T01:54:52;8.10;99.90
4509;DHT22;2267;48.816;9.230;2024-01-06T01:57:20;8.10;99.90
4509;DHT22;2267;48.816;9.230;2024-01-06T01:59:47;8.10;99.90
4509;DHT22;2267;48.816;9.230;2024-01-06T02:02:14;8.10;99.90
4509;DHT22;2267;48.816;9.230;2024-01-06T02:04:42;8.00;99.90
4509;DHT22;2267;48.816;9.230;2024-01-06T02:07:09;8.00;99.90
4509;DHT22;2267;48.816;9.230;2024-01-06T02:09:35;8.00;99.90
4509;DHT22;2267;48.816;9.230;2024-01-06T02:12:03;8.00;99.90
4509;DHT22;2267;48.816;9.230;2024-01-06T02:14:29;8.00;99.90
4509;DHT22;2267;48.816;9.230;2024-01-06T02:16:57;8.00;99.90
4509;DHT22;2267;48.816;9.230;2024-01-06T02:19:24;8.00;99.90
4509;DHT22;2267;48.816;9.230;2024-01-06T02:21:52;8.00;99.90
4509;DHT22;2267;48.816;9.230;2024-01-06T02:24:20;8.00;99.90
4509;DHT22;2267;48.816;9.230;2024-01-06T02:26:47;8.00;99.90
4509;DHT22;2267;48.816;9.230;2024-01-06T02:29:14;8.00;99.90
4509;DHT22;2267;48.816;9.230;2024-01-06T02:31:41;8.00;99.90
4509;DHT22;2267;48.816;9.230;2024-01-06T02:34:08;8.00;99.90
4509;DHT22;2267;48.816;9.230;2024-01-06T02:36:35;8.00;99.90
4509;DHT22;2267;48.816;9.230;2024-01-06T02:39:02;8.00;99.90
4509;DHT22;2267;48.816;9.230;2024-01-06T02:41:29;8.00;99.90
4509;DHT22;2267;48.816;9.230;2024-01-06T02:43:55;8.00;99.90
4509;DHT22;2267;48.816;9.230;2024-01-06T02:46:25;8.00;99.90
4509;DHT22;2267;48.816;9.230;2024-01-06T02:48:52;8.00;99.90
4509;DHT22;2267;48.816;9.230;2024-01-06T02:51:19;8.00;99.90
4509;DHT22;2267;48.816;9.230;2024-01-06T02:53:45;8.00;99.90
4509;DHT22;2267;48.816;9.230;2024-01-06T02:56:12;8.00;99.90
4509;DHT22;2267;48.816;9.230;2024-01-06T02:58:39;8.00;99.90
4509;DHT22;2267;48.816;9.230;2024-01-06T03:01:06;8.00;99.90
4509;DHT22;2267;48.816;9.230;2024-01-06T03:03:33;8.00;99.90
4509;DHT22;2267;48.816;9.230;2024-01-06T03:06:00;8.00;99.90
4509;DHT22;2267;48.816;9.230;2024-01-06T03:08:27;7.90;99.90
4509;DHT22;2267;48.816;9.230;2024-01-06T03:10:54;8.00;99.90
4509;DHT22;2267;48.816;9.230;2024-01-06T03:13:21;8.00;99.90
4509;DHT22;2267;48.816;9.230;2024-01-06T03:15:48;8.00;99.90
4509;DHT22;2267;48.816;9.230;2024-01-06T03:18:15;8.00;99.90
4509;DHT22;2267;48.816;9.230;2024-01-06T03:20:42;8.00;99.90
4509;DHT22;2267;48.816;9.230;2024-01-06T03:23:08;8.00;99.90
4509;DHT22;2267;48.816;9.230;2024-01-06T03:25:35;8.10;99.90
4509;DHT22;2267;48.816;9.230;2024-01-06T03:28:02;8.10;99.90
4509;DHT22;2267;48.816;9.230;2024-01-06T03:30:29;8.00;99.90
4509;DHT22;2267;48.816;9.230;2024-01-06T03:32:56;8.10;99.90
4509;DHT22;2267;48.816;9.230;2024-01-06T03:35:23;8.00;99.90
4509;DHT22;2267;48.816;9.230;2024-01-06T03:37:50;8.00;99.90
4509;DHT22;2267;48.816;9.230;2024-01-06T03:40:17;8.00;99.90
4509;DHT22;2267;48.816;9.230;2024-01-06T03:42:44;8.00;99.90
4509;DHT22;2267;48.816;9.230;2024-01-06T03:45:10;8.00;99.90
4509;DHT22;2267;48.816;9.230;2024-01-06T03:47:37;8.00;99.90
4509;DHT22;2267;48.816;9.230;2024-01-06T03:50:05;8.00;99.90
4509;DHT22;2267;48.816;9.230;2024-01-06T03:52:32;8.00;99.90
4509;DHT22;2267;48.816;9.230;2024-01-06T03:54:59;8.00;99.90
4509;DHT22;2267;48.816;9.230;2024-01-06T03:57:26;8.00;99.90
4509;DHT22;2267;48.816;9.230;2024-01-06T03:59:53;8.00;99.90
4509;DHT22;2267;48.816;9.230;2024-01-06T04:02:20;7.90;99.90
4509;DHT22;2267;48.816;9.230;2024-01-06T04:04:46;7.90;99.90
4509;DHT22;2267;48.816;9.230;2024-01-06T04:07:13;7.90;99.90
4509;DHT22;2267;48.816;9.230;2024-01-06T04:09:42;7.90;99.90
4509;DHT22;2267;48.816;9.230;2024-01-06T04:12:10;7.90;99.90
4509;DHT22;2267;48.816;9.230;2024-01-06T04:14:37;7.90;99.90
4509;DHT22;2267;48.816;9.230;2024-01-06T04:17:04;7.90;99.90
4509;DHT22;2267;48.816;9.230;2024-01-06T04:19:30;7.90;99.90
4509;DHT22;2267;48.816;9.230;2024-01-06T04:21:59;7.90;99.90
4509;DHT22;2267;48.816;9.230;2024-01-06T04:24:26;7.90;99.90
4509;DHT22;2267;48.816;9.230;2024-01-06T04:26:54;8.00;99.90
4509;DHT22;2267;48.816;9.230;2024-01-06T04:29:21;7.90;99.90
4509;DHT22;2267;48.816;9.230;2024-01-06T04:31:48;7.90;99.90
4509;DHT22;2267;48.816;9.230;2024-01-06T04:34:15;7.90;99.90
4509;DHT22;2267;48.816;9.230;2024-01-06T04:36:42;7.90;99.90
4509;DHT22;2267;48.816;9.230;2024-01-06T04:39:08;7.90;99.90
4509;DHT22;2267;48.816;9.230;2024-01-06T04:41:35;7.90;99.90
4509;DHT22;2267;48.816;9.230;2024-01-06T04:44:02;7.90;99.90
4509;DHT22;2267;48.816;9.230;2024-01-06T04:46:29;7.90;99.90
4509;DHT22;2267;48.816;9.230;2024-01-06T04:48:57;7.90;99.90
4509;DHT22;2267;48.816;9.230;2024-01-06T04:51:24;7.90;99.90
4509;DHT22;2267;48.816;9.230;2024-01-06T04:53:51;7.90;99.90
4509;DHT22;2267;48.816;9.230;2024-01-06T04:56:17;7.90;99.90
4509;DHT22;2267;48.816;9.230;2024-01-06T04:58:45;7.90;99.90
4509;DHT22;2267;48.816;9.230;2024-01-06T05:01:11;7.90;99.90
4509;DHT22;2267;48.816;9.230;2024-01-06T05:03:38;7.90;99.90
4509;DHT22;2267;48.816;9.230;2024-01-06T05:06:05;7.90;99.90
4509;DHT22;2267;48.816;9.230;2024-01-06T05:08:32;7.90;99.90
4509;DHT22;2267;48.816;9.230;2024-01-06T05:10:59;7.90;99.90
4509;DHT22;2267;48.816;9.230;2024-01-06T05:13:28;7.90;99.90
4509;DHT22;2267;48.816;9.230;2024-01-06T05:15:55;7.90;99.90
4509;DHT22;2267;48.816;9.230;2024-01-06T05:18:22;7.90;99.90
4509;DHT22;2267;48.816;9.230;2024-01-06T05:20:49;7.90;99.90
4509;DHT22;2267;48.816;9.230;2024-01-06T05:23:16;7.90;99.90
4509;DHT22;2267;48.816;9.230;2024-01-06T05:25:42;7.90;99.90
4509;DHT22;2267;48.816;9.230;2024-01-06T05:28:09;7.90;99.90
4509;DHT22;2267;48.816;9.230;2024-01-06T05:30:36;7.90;99.90
4509;DHT22;2267;48.816;9.230;2024-01-06T05:33:03;7.90;99.90
4509;DHT22;2267;48.816;9.230;2024-01-06T05:35:30;7.90;99.90
4509;DHT22;2267;48.816;9.230;2024-01-06T05:37:57;7.90;99.90
4509;DHT22;2267;48.816;9.230;2024-01-06T05:40:24;7.90;99.90
4509;DHT22;2267;48.816;9.230;2024-01-06T05:42:51;7.90;99.90
4509;DHT22;2267;48.816;9.230;2024-01-06T05:45:22;7.90;99.90
4509;DHT22;2267;48.816;9.230;2024-01-06T05:47:50;7.90;99.90
4509;DHT22;2267;48.816;9.230;2024-01-06T05:50:17;7.90;99.90
4509;DHT22;2267;48.816;9.230;2024-01-06T05:52:45;7.90;99.90
4509;DHT22;2267;48.816;9.230;2024-01-06T05:55:14;7.90;99.90
4509;DHT22;2267;48.816;9.230;2024-01-06T05:57:41;7.90;99.90
4509;DHT22;2267;48.816;9.230;2024-01-06T06:00:08;7.90;99.90
4509;DHT22;2267;48.816;9.230;2024-01-06T06:02:35;7.90;99.90
4509;DHT22;2267;48.816;9.230;2024-01-06T06:05:02;7.90;99.90
4509;DHT22;2267;48.816;9.230;2024-01-06T06:07:29;7.90;99.90
4509;DHT22;2267;48.816;9.230;2024-01-06T06:09:56;7.90;99.90
4509;DHT22;2267;48.816;9.230;2024-01-06T06:12:23;7.90;99.90
4509;DHT22;2267;48.816;9.230;2024-01-06T06:14:50;7.80;99.90
4509;DHT22;2267;48.816;9.230;2024-01-06T06:17:17;7.80;99.90
4509;DHT22;2267;48.816;9.230;2024-01-06T06:19:43;7.80;99.90
4509;DHT22;2267;48.816;9.230;2024-01-06T06:22:10;7.80;99.90
4509;DHT22;2267;48.816;9.230;2024-01-06T06:24:37;7.80;99.90
4509;DHT22;2267;48.816;9.230;2024-01-06T06:27:04;7.80;99.90
4509;DHT22;2267;48.816;9.230;2024-01-06T06:29:31;7.80;99.90
4509;DHT22;2267;48.816;9.230;2024-01-06T06:31:58;7.80;99.90
4509;DHT22;2267;48.816;9.230;2024-01-06T06:34:24;7.80;99.90
4509;DHT22;2267;48.816;9.230;2024-01-06T06:36:51;7.80;99.90
4509;DHT22;2267;48.816;9.230;2024-01-06T06:39:18;7.80;99.90
4509;DHT22;2267;48.816;9.230;2024-01-06T06:41:45;7.80;99.90
4509;DHT22;2267;48.816;9.230;2024-01-06T06:44:12;7.80;99.90
4509;DHT22;2267;48.816;9.230;2024-01-06T06:46:39;7.80;99.90
4509;DHT22;2267;48.816;9.230;2024-01-06T06:49:06;7.80;99.90
4509;DHT22;2267;48.816;9.230;2024-01-06T06:51:34;7.90;99.90
4509;DHT22;2267;48.816;9.230;2024-01-06T06:54:01;7.80;99.90
4509;DHT22;2267;48.816;9.230;2024-01-06T06:56:27;7.80;99.90
4509;DHT22;2267;48.816;9.230;2024-01-06T06:58:54;7.80;99.90
4509;DHT22;2267;48.816;9.230;2024-01-06T07:01:21;7.80;99.90
4509;DHT22;2267;48.816;9.230;2024-01-06T07:03:48;7.80;99.90
4509;DHT22;2267;48.816;9.230;2024-01-06T07:06:15;7.80;99.90
4509;DHT22;2267;48.816;9.230;2024-01-06T07:08:42;7.80;99.90
4509;DHT22;2267;48.816;9.230;2024-01-06T07:11:09;7.80;99.90
4509;DHT22;2267;48.816;9.230;2024-01-06T07:13:38;7.80;99.90
4509;DHT22;2267;48.816;9.230;2024-01-06T07:16:05;7.80;99.90
4509;DHT22;2267;48.816;9.230;2024-01-06T07:18:44;7.80;99.90
4509;DHT22;2267;48.816;9.230;2024-01-06T07:21:12;7.80;99.90
4509;DHT22;2267;48.816;9.230;2024-01-06T07:23:39;7.80;99.90
4509;DHT22;2267;48.816;9.230;2024-01-06T07:26:06;7.80;99.90
4509;DHT22;2267;48.816;9.230;2024-01-06T07:28:34;7.80;99.90
4509;DHT22;2267;48.816;9.230;2024-01-06T07:31:01;7.80;99.90
4509;DHT22;2267;48.816;9.230;2024-01-06T07:33:28;7.80;99.90
4509;DHT22;2267;48.816;9.230;2024-01-06T07:35:55;7.80;99.90
4509;DHT22;2267;48.816;9.230;2024-01-06T07:38:22;7.80;99.90
4509;DHT22;2267;48.816;9.230;2024-01-06T07:40:49;7.80;99.90
4509;DHT22;2267;48.816;9.230;2024-01-06T07:43:15;7.80;99.90
4509;DHT22;2267;48.816;9.230;2024-01-06T07:45:42;7.80;99.90
4509;DHT22;2267;48.816;9.230;2024-01-06T07:48:09;7.90;99.90
4509;DHT22;2267;48.816;9.230;2024-01-06T07:50:36;7.90;99.90
4509;DHT22;2267;48.816;9.230;2024-01-06T07:53:03;7.90;99.90
4509;DHT22;2267;48.816;9.230;2024-01-06T07:55:30;7.90;99.90
4509;DHT22;2267;48.816;9.230;2024-01-06T07:57:58;7.90;99.90
4509;DHT22;2267;48.816;9.230;2024-01-06T08:00:24;7.90;99.90
4509;DHT22;2267;48.816;9.230;2024-01-06T08:02:52;7.90;99.90
4509;DHT22;2267;48.816;9.230;2024-01-06T08:05:19;7.90;99.90
4509;DHT22;2267;48.816;9.230;2024-01-06T08:07:46;7.90;99.90
4509;DHT22;2267;48.816;9.230;2024-01-06T08:10:13;7.90;99.90
4509;DHT22;2267;48.816;9.230;2024-01-06T08:12:39;7.90;99.90
4509;DHT22;2267;48.816;9.230;2024-01-06T08:15:07;7.90;99.90
4509;DHT22;2267;48.816;9.230;2024-01-06T08:17:36;7.90;99.90
4509;DHT22;2267;48.816;9.230;2024-01-06T08:20:04;7.90;99.90
4509;DHT22;2267;48.816;9.230;2024-01-06T08:22:31;7.90;99.90
4509;DHT22;2267;48.816;9.230;2024-01-06T08:24:58;7.90;99.90
4509;DHT22;2267;48.816;9.230;2024-01-06T08:27:25;8.00;99.90
4509;DHT22;2267;48.816;9.230;2024-01-06T08:29:52;8.00;99.90
4509;DHT22;2267;48.816;9.230;2024-01-06T08:32:19;8.00;99.90
4509;DHT22;2267;48.816;9.230;2024-01-06T08:34:45;8.00;99.90
4509;DHT22;2267;48.816;9.230;2024-01-06T08:37:12;8.00;99.90
4509;DHT22;2267;48.816;9.230;2024-01-06T08:39:40;8.00;99.90
4509;DHT22;2267;48.816;9.230;2024-01-06T08:42:07;8.00;99.90
4509;DHT22;2267;48.816;9.230;2024-01-06T08:44:34;8.00;99.90
4509;DHT22;2267;48.816;9.230;2024-01-06T08:47:01;8.10;99.90
4509;DHT22;2267;48.816;9.230;2024-01-06T08:49:29;8.10;99.90
4509;DHT22;2267;48.816;9.230;2024-01-06T08:51:57;8.10;99.90
4509;DHT22;2267;48.816;9.230;2024-01-06T08:54:24;8.10;99.90
4509;DHT22;2267;48.816;9.230;2024-01-06T08:56:51;8.10;99.90
4509;DHT22;2267;48.816;9.230;2024-01-06T08:59:18;8.10;99.90
4509;DHT22;2267;48.816;9.230;2024-01-06T09:01:46;8.10;99.90
4509;DHT22;2267;48.816;9.230;2024-01-06T09:04:16;8.10;99.90
4509;DHT22;2267;48.816;9.230;2024-01-06T09:06:43;8.20;99.90
4509;DHT22;2267;48.816;9.230;2024-01-06T09:09:10;8.20;99.90
4509;DHT22;2267;48.816;9.230;2024-01-06T09:11:37;8.20;99.90
4509;DHT22;2267;48.816;9.230;2024-01-06T09:14:04;8.10;99.90
4509;DHT22;2267;48.816;9.230;2024-01-06T09:16:31;8.60;99.90
4509;DHT22;2267;48.816;9.230;2024-01-06T09:18:58;9.30;99.90
4509;DHT22;2267;48.816;9.230;2024-01-06T09:21:25;9.90;99.90
4509;DHT22;2267;48.816;9.230;2024-01-06T09:23:52;10.30;99.90
4509;DHT22;2267;48.816;9.230;2024-01-06T09:26:19;10.60;99.90
4509;DHT22;2267;48.816;9.230;2024-01-06T09:28:46;11.10;99.90
4509;DHT22;2267;48.816;9.230;2024-01-06T09:31:14;11.40;99.90
4509;DHT22;2267;48.816;9.230;2024-01-06T09:33:41;11.20;99.90
4509;DHT22;2267;48.816;9.230;2024-01-06T09:36:08;10.90;99.90
4509;DHT22;2267;48.816;9.230;2024-01-06T09:38:38;10.70;99.90
4509;DHT22;2267;48.816;9.230;2024-01-06T09:41:05;10.40;99.90
4509;DHT22;2267;48.816;9.230;2024-01-06T09:43:32;10.20;99.90
4509;DHT22;2267;48.816;9.230;2024-01-06T09:46:11;10.10;99.90
4509;DHT22;2267;48.816;9.230;2024-01-06T09:48:41;9.90;99.90
4509;DHT22;2267;48.816;9.230;2024-01-06T09:51:11;9.80;99.90
4509;DHT22;2267;48.816;9.230;2024-01-06T09:53:48;9.70;99.90
4509;DHT22;2267;48.816;9.230;2024-01-06T09:56:18;9.60;99.90
4509;DHT22;2267;48.816;9.230;2024-01-06T09:58:45;9.50;99.90
4509;DHT22;2267;48.816;9.230;2024-01-06T10:01:13;9.40;99.90
4509;DHT22;2267;48.816;9.230;2024-01-06T10:03:41;9.40;99.90
4509;DHT22;2267;48.816;9.230;2024-01-06T10:06:08;9.30;99.90
4509;DHT22;2267;48.816;9.230;2024-01-06T10:08:36;9.30;99.90
4509;DHT22;2267;48.816;9.230;2024-01-06T10:11:03;9.30;99.90
4509;DHT22;2267;48.816;9.230;2024-01-06T10:13:30;9.20;99.90
4509;DHT22;2267;48.816;9.230;2024-01-06T10:15:57;9.20;99.90
4509;DHT22;2267;48.816;9.230;2024-01-06T10:18:27;9.20;99.90
4509;DHT22;2267;48.816;9.230;2024-01-06T10:20:57;9.20;99.90
4509;DHT22;2267;48.816;9.230;2024-01-06T10:23:26;9.10;99.90
4509;DHT22;2267;48.816;9.230;2024-01-06T10:25:54;9.10;99.90
4509;DHT22;2267;48.816;9.230;2024-01-06T10:28:25;9.10;99.90
4509;DHT22;2267;48.816;9.230;2024-01-06T10:30:52;9.10;99.90
4509;DHT22;2267;48.816;9.230;2024-01-06T10:33:24;9.00;99.90
4509;DHT22;2267;48.816;9.230;2024-01-06T10:35:53;9.00;99.90
4509;DHT22;2267;48.816;9.230;2024-01-06T10:38:21;9.00;99.90
4509;DHT22;2267;48.816;9.230;2024-01-06T10:41:04;8.90;99.90
4509;DHT22;2267;48.816;9.230;2024-01-06T10:43:35;8.90;99.90
4509;DHT22;2267;48.816;9.230;2024-01-06T10:46:04;8.90;99.90
4509;DHT22;2267;48.816;9.230;2024-01-06T10:48:35;9.20;99.90
4509;DHT22;2267;48.816;9.230;2024-01-06T10:51:03;9.10;99.90
4509;DHT22;2267;48.816;9.230;2024-01-06T10:53:35;9.10;99.90
4509;DHT22;2267;48.816;9.230;2024-01-06T10:56:07;9.10;99.90
4509;DHT22;2267;48.816;9.230;2024-01-06T10:58:35;9.00;99.90
4509;DHT22;2267;48.816;9.230;2024-01-06T11:01:10;8.90;99.90
4509;DHT22;2267;48.816;9.230;2024-01-06T11:03:38;8.80;99.90
4509;DHT22;2267;48.816;9.230;2024-01-06T11:06:06;8.80;99.90
4509;DHT22;2267;48.816;9.230;2024-01-06T11:08:36;8.80;99.90
4509;DHT22;2267;48.816;9.230;2024-01-06T11:11:09;8.70;99.90
4509;DHT22;2267;48.816;9.230;2024-01-06T11:13:36;8.60;99.90
4509;DHT22;2267;48.816;9.230;2024-01-06T11:16:05;8.60;99.90
4509;DHT22;2267;48.816;9.230;2024-01-06T11:18:38;8.50;99.90
4509;DHT22;2267;48.816;9.230;2024-01-06T11:21:21;8.60;99.90
4509;DHT22;2267;48.816;9.230;2024-01-06T11:24:24;8.60;99.90
4509;DHT22;2267;48.816;9.230;2024-01-06T11:26:56;8.70;99.90
4509;DHT22;2267;48.816;9.230;2024-01-06T11:29:23;8.60;99.90
4509;DHT22;2267;48.816;9.230;2024-01-06T11:32:17;8.70;99.90
4509;DHT22;2267;48.816;9.230;2024-01-06T11:34:53;8.60;99.90
4509;DHT22;2267;48.816;9.230;2024-01-06T11:39:52;8.70;99.90
4509;DHT22;2267;48.816;9.230;2024-01-06T11:42:20;8.60;99.90
4509;DHT22;2267;48.816;9.230;2024-01-06T11:44:50;8.60;99.90
4509;DHT22;2267;48.816;9.230;2024-01-06T11:47:17;8.60;99.90
4509;DHT22;2267;48.816;9.230;2024-01-06T11:49:45;8.70;99.90
4509;DHT22;2267;48.816;9.230;2024-01-06T11:52:15;8.70;99.90
4509;DHT22;2267;48.816;9.230;2024-01-06T11:54:43;8.70;99.90
4509;DHT22;2267;48.816;9.230;2024-01-06T11:57:10;8.70;99.90
4509;DHT22;2267;48.816;9.230;2024-01-06T11:59:37;8.70;99.90
4509;DHT22;2267;48.816;9.230;2024-01-06T12:02:04;8.70;99.90
4509;DHT22;2267;48.816;9.230;2024-01-06T12:04:32;8.70;99.90
4509;DHT22;2267;48.816;9.230;2024-01-06T12:07:09;8.70;99.90
4509;DHT22;2267;48.816;9.230;2024-01-06T12:09:36;8.70;99.90
4509;DHT22;2267;48.816;9.230;2024-01-06T12:12:04;8.70;99.90
4509;DHT22;2267;48.816;9.230;2024-01-06T12:14:32;8.70;99.90
4509;DHT22;2267;48.816;9.230;2024-01-06T12:16:59;8.70;99.90
4509;DHT22;2267;48.816;9.230;2024-01-06T12:19:31;8.70;99.90
4509;DHT22;2267;48.816;9.230;2024-01-06T12:22:02;8.70;99.90
4509;DHT22;2267;48.816;9.230;2024-01-06T12:24:30;8.70;99.90
4509;DHT22;2267;48.816;9.230;2024-01-06T12:26:57;8.70;99.90
4509;DHT22;2267;48.816;9.230;2024-01-06T12:29:28;8.70;99.90
4509;DHT22;2267;48.816;9.230;2024-01-06T12:31:55;8.70;99.90
4509;DHT22;2267;48.816;9.230;2024-01-06T12:34:23;8.70;99.90
4509;DHT22;2267;48.816;9.230;2024-01-06T12:36:53;8.70;99.90
4509;DHT22;2267;48.816;9.230;2024-01-06T12:39:22;8.70;99.90
4509;DHT22;2267;48.816;9.230;2024-01-06T12:41:50;8.60;99.90
4509;DHT22;2267;48.816;9.230;2024-01-06T12:44:18;8.70;99.90
4509;DHT22;2267;48.816;9.230;2024-01-06T12:46:45;8.60;99.90
4509;DHT22;2267;48.816;9.230;2024-01-06T12:49:12;8.60;99.90
4509;DHT22;2267;48.816;9.230;2024-01-06T12:51:39;8.60;99.90
4509;DHT22;2267;48.816;9.230;2024-01-06T12:54:06;8.60;99.90
4509;DHT22;2267;48.816;9.230;2024-01-06T12:56:33;8.60;99.90
4509;DHT22;2267;48.816;9.230;2024-01-06T12:59:00;8.60;99.90
4509;DHT22;2267;48.816;9.230;2024-01-06T13:01:27;8.60;99.90
4509;DHT22;2267;48.816;9.230;2024-01-06T13:03:54;8.60;99.90
4509;DHT22;2267;48.816;9.230;2024-01-06T13:06:21;8.50;99.90
4509;DHT22;2267;48.816;9.230;2024-01-06T13:08:48;8.50;99.90
4509;DHT22;2267;48.816;9.230;2024-01-06T13:11:15;8.60;99.90
4509;DHT22;2267;48.816;9.230;2024-01-06T13:13:42;8.60;99.90
4509;DHT22;2267;48.816;9.230;2024-01-06T13:16:09;8.60;99.90
4509;DHT22;2267;48.816;9.230;2024-01-06T13:18:36;8.60;99.90
4509;DHT22;2267;48.816;9.230;2024-01-06T13:21:03;8.60;99.90
4509;DHT22;2267;48.816;9.230;2024-01-06T13:23:30;8.60;99.90
4509;DHT22;2267;48.816;9.230;2024-01-06T13:25:58;8.60;99.90
4509;DHT22;2267;48.816;9.230;2024-01-06T13:28:25;8.60;99.90
4509;DHT22;2267;48.816;9.230;2024-01-06T13:30:52;8.60;99.90
4509;DHT22;2267;48.816;9.230;2024-01-06T13:33:20;8.60;99.90
4509;DHT22;2267;48.816;9.230;2024-01-06T13:35:47;8.60;99.90
4509;DHT22;2267;48.816;9.230;2024-01-06T13:38:15;8.60;99.90
4509;DHT22;2267;48.816;9.230;2024-01-06T13:40:43;8.60;99.90
4509;DHT22;2267;48.816;9.230;2024-01-06T13:43:10;8.60;99.90
4509;DHT22;2267;48.816;9.230;2024-01-06T13:45:43;8.60;99.90
4509;DHT22;2267;48.816;9.230;2024-01-06T13:48:11;8.50;99.90
4509;DHT22;2267;48.816;9.230;2024-01-06T13:50:38;8.50;99.90
4509;DHT22;2267;48.816;9.230;2024-01-06T13:53:05;8.50;99.90
4509;DHT22;2267;48.816;9.230;2024-01-06T13:55:35;8.50;99.90
4509;DHT22;2267;48.816;9.230;2024-01-06T13:58:02;8.50;99.90
4509;DHT22;2267;48.816;9.230;2024-01-06T14:00:29;8.50;99.90
4509;DHT22;2267;48.816;9.230;2024-01-06T14:02:57;8.60;99.90
4509;DHT22;2267;48.816;9.230;2024-01-06T14:05:24;8.50;99.90
4509;DHT22;2267;48.816;9.230;2024-01-06T14:07:51;8.50;99.90
4509;DHT22;2267;48.816;9.230;2024-01-06T14:10:18;8.50;99.90
4509;DHT22;2267;48.816;9.230;2024-01-06T14:12:45;8.40;99.90
4509;DHT22;2267;48.816;9.230;2024-01-06T14:15:12;8.50;99.90
4509;DHT22;2267;48.816;9.230;2024-01-06T14:17:39;8.40;99.90
4509;DHT22;2267;48.816;9.230;2024-01-06T14:20:08;8.40;99.90
4509;DHT22;2267;48.816;9.230;2024-01-06T14:22:39;8.50;99.90
4509;DHT22;2267;48.816;9.230;2024-01-06T14:25:06;8.40;99.90
4509;DHT22;2267;48.816;9.230;2024-01-06T14:27:33;8.40;99.90
4509;DHT22;2267;48.816;9.230;2024-01-06T14:30:00;8.40;99.90
4509;DHT22;2267;48.816;9.230;2024-01-06T14:32:27;8.40;99.90
4509;DHT22;2267;48.816;9.230;2024-01-06T14:34:55;8.40;99.90
4509;DHT22;2267;48.816;9.230;2024-01-06T14:37:22;8.40;99.90
4509;DHT22;2267;48.816;9.230;2024-01-06T14:39:49;8.40;99.90
4509;DHT22;2267;48.816;9.230;2024-01-06T14:42:16;8.40;99.90
4509;DHT22;2267;48.816;9.230;2024-01-06T14:44:46;8.40;99.90
4509;DHT22;2267;48.816;9.230;2024-01-06T14:47:13;8.40;99.90
4509;DHT22;2267;48.816;9.230;2024-01-06T14:49:39;8.40;99.90
4509;DHT22;2267;48.816;9.230;2024-01-06T14:52:06;8.40;99.90
4509;DHT22;2267;48.816;9.230;2024-01-06T14:54:35;8.40;99.90
4509;DHT22;2267;48.816;9.230;2024-01-06T14:57:02;8.40;99.90
4509;DHT22;2267;48.816;9.230;2024-01-06T14:59:29;8.40;99.90
4509;DHT22;2267;48.816;9.230;2024-01-06T15:01:56;8.40;99.90
4509;DHT22;2267;48.816;9.230;2024-01-06T15:04:23;8.40;99.90
4509;DHT22;2267;48.816;9.230;2024-01-06T15:06:52;8.40;99.90
4509;DHT22;2267;48.816;9.230;2024-01-06T15:09:19;8.40;99.90
4509;DHT22;2267;48.816;9.230;2024-01-06T15:11:47;8.40;99.90
4509;DHT22;2267;48.816;9.230;2024-01-06T15:14:14;8.40;99.90
4509;DHT22;2267;48.816;9.230;2024-01-06T15:16:41;8.40;99.90
4509;DHT22;2267;48.816;9.230;2024-01-06T15:19:07;8.40;99.90
4509;DHT22;2267;48.816;9.230;2024-01-06T15:21:35;8.40;99.90
4509;DHT22;2267;48.816;9.230;2024-01-06T15:24:03;8.40;99.90
4509;DHT22;2267;48.816;9.230;2024-01-06T15:26:31;8.40;99.90
4509;DHT22;2267;48.816;9.230;2024-01-06T15:28:58;8.40;99.90
4509;DHT22;2267;48.816;9.230;2024-01-06T15:31:29;8.40;99.90
4509;DHT22;2267;48.816;9.230;2024-01-06T15:33:56;8.40;99.90
4509;DHT22;2267;48.816;9.230;2024-01-06T15:36:24;8.40;99.90
4509;DHT22;2267;48.816;9.230;2024-01-06T15:38:50;8.40;99.90
4509;DHT22;2267;48.816;9.230;2024-01-06T15:41:17;8.40;99.90
4509;DHT22;2267;48.816;9.230;2024-01-06T15:43:44;8.40;99.90
4509;DHT22;2267;48.816;9.230;2024-01-06T15:46:11;8.40;99.90
4509;DHT22;2267;48.816;9.230;2024-01-06T15:48:38;8.40;99.90
4509;DHT22;2267;48.816;9.230;2024-01-06T15:51:05;8.40;99.90
4509;DHT22;2267;48.816;9.230;2024-01-06T15:53:32;8.40;99.90
4509;DHT22;2267;48.816;9.230;2024-01-06T15:56:00;8.40;99.90
4509;DHT22;2267;48.816;9.230;2024-01-06T15:58:27;8.40;99.90
4509;DHT22;2267;48.816;9.230;2024-01-06T16:00:54;8.40;99.90
4509;DHT22;2267;48.816;9.230;2024-01-06T16:03:21;8.40;99.90
4509;DHT22;2267;48.816;9.230;2024-01-06T16:05:48;8.40;99.90
4509;DHT22;2267;48.816;9.230;2024-01-06T16:08:15;8.40;99.90
4509;DHT22;2267;48.816;9.230;2024-01-06T16:10:42;8.30;99.90
4509;DHT22;2267;48.816;9.230;2024-01-06T16:13:09;8.30;99.90
4509;DHT22;2267;48.816;9.230;2024-01-06T16:15:36;8.30;99.90
4509;DHT22;2267;48.816;9.230;2024-01-06T16:18:03;8.30;99.90
4509;DHT22;2267;48.816;9.230;2024-01-06T16:20:31;8.30;99.90
4509;DHT22;2267;48.816;9.230;2024-01-06T16:22:58;8.30;99.90